Time;durP1;ratioP1;P1;durP2;ratioP2;P2;SDS_P1;SDS_P2;PMS_P1;PMS_P2;Temp;Humidity;BMP_temperature;BMP_pressure;BME280_temperature;BME280_humidity;BME280_pressure;Samples;Min_cycle;Max_cycle;Signal;HPM_P1;HPM_P2
2021/04/17 00:02:37;;;;;;;1.30;1.20;;;;;;;19.32;40.91;101137.57;;;;-52
2021/04/17 00:05:37;;;;;;;1.50;1.40;;;;;;;19.29;40.90;101135.42;;;;-52
2021/04/17 00:08:37;;;;;;;1.41;1.31;;;;;;;19.28;40.94;101134.20;;;;-53
2021/04/17 00:11:37;;;;;;;1.47;1.37;;;;;;;19.26;40.93;101127.58;;;;-53
2021/04/17 00:14:37;;;;;;;1.50;1.40;;;;;;;19.25;40.95;101122.27;;;;-52
2021/04/17 00:17:37;;;;;;;1.49;1.39;;;;;;;19.24;40.93;101121.13;;;;-53
2021/04/17 00:20:37;;;;;;;1.40;1.30;;;;;;;19.23;40.95;101118.56;;;;-53
2021/04/17 00:23:37;;;;;;;1.37;1.27;;;;;;;19.21;41.01;101117.39;;;;-53
2021/04/17 00:26:37;;;;;;;2.20;1.43;;;;;;;19.20;40.97;101112.36;;;;-52
2021/04/17 00:29:37;;;;;;;1.51;1.41;;;;;;;19.18;40.99;101108.91;;;;-53
2021/04/17 00:32:37;;;;;;;1.43;1.33;;;;;;;19.17;40.99;101103.43;;;;-52
2021/04/17 00:35:37;;;;;;;1.53;1.43;;;;;;;19.16;40.98;101102.20;;;;-52
2021/04/17 00:38:37;;;;;;;1.50;1.40;;;;;;;19.15;41.01;101100.87;;;;-53
2021/04/17 00:41:37;;;;;;;1.83;1.58;;;;;;;19.14;40.99;101100.70;;;;-53
2021/04/17 00:44:37;;;;;;;2.63;1.29;;;;;;;19.12;41.00;101094.50;;;;-52
2021/04/17 00:47:37;;;;;;;1.50;1.40;;;;;;;19.11;41.00;101093.68;;;;-52
2021/04/17 00:50:37;;;;;;;1.45;1.35;;;;;;;19.11;40.98;101092.27;;;;-52
2021/04/17 00:53:37;;;;;;;1.41;1.31;;;;;;;19.10;40.99;101094.30;;;;-53
2021/04/17 00:56:37;;;;;;;1.53;1.39;;;;;;;19.08;41.03;101093.12;;;;-53
2021/04/17 00:59:37;;;;;;;1.37;1.27;;;;;;;19.08;41.03;101096.53;;;;-52
2021/04/17 01:02:37;;;;;;;1.40;1.30;;;;;;;19.06;41.01;101093.00;;;;-52
2021/04/17 01:05:37;;;;;;;1.45;1.35;;;;;;;19.06;41.00;101090.16;;;;-53
2021/04/17 01:08:37;;;;;;;1.44;1.34;;;;;;;19.04;41.00;101094.27;;;;-53
2021/04/17 01:11:37;;;;;;;1.47;1.37;;;;;;;19.03;41.01;101087.81;;;;-53
2021/04/17 01:14:37;;;;;;;1.42;1.31;;;;;;;19.01;41.04;101086.50;;;;-52
2021/04/17 01:17:37;;;;;;;1.43;1.33;;;;;;;19.00;41.02;101086.39;;;;-53
2021/04/17 01:20:37;;;;;;;1.34;1.24;;;;;;;18.98;41.03;101085.46;;;;-52
2021/04/17 01:23:37;;;;;;;1.43;1.33;;;;;;;18.97;41.04;101084.32;;;;-53
2021/04/17 01:26:37;;;;;;;1.59;1.49;;;;;;;18.97;40.98;101086.27;;;;-53
2021/04/17 01:29:37;;;;;;;1.53;1.30;;;;;;;18.96;41.06;101086.31;;;;-53
2021/04/17 01:32:37;;;;;;;1.53;1.43;;;;;;;18.96;41.02;101086.15;;;;-53
2021/04/17 01:35:37;;;;;;;1.49;1.39;;;;;;;18.94;41.02;101082.38;;;;-52
2021/04/17 01:38:37;;;;;;;1.40;1.30;;;;;;;18.93;41.06;101087.16;;;;-52
2021/04/17 01:41:37;;;;;;;1.48;1.38;;;;;;;18.92;41.05;101082.98;;;;-52
2021/04/17 01:44:37;;;;;;;1.51;1.41;;;;;;;18.91;41.05;101081.53;;;;-53
2021/04/17 01:47:37;;;;;;;1.55;1.30;;;;;;;18.90;41.06;101078.48;;;;-53
2021/04/17 01:50:37;;;;;;;1.50;1.40;;;;;;;18.89;41.01;101077.27;;;;-52
2021/04/17 01:53:37;;;;;;;1.46;1.36;;;;;;;18.88;41.03;101074.47;;;;-53
2021/04/17 01:56:37;;;;;;;1.44;1.34;;;;;;;18.87;41.02;101071.87;;;;-53
2021/04/17 01:59:37;;;;;;;1.35;1.25;;;;;;;18.86;41.01;101068.50;;;;-53
2021/04/17 02:02:37;;;;;;;1.46;1.36;;;;;;;18.86;41.03;101070.77;;;;-53
2021/04/17 02:05:37;;;;;;;1.42;1.31;;;;;;;18.85;41.03;101071.09;;;;-53
2021/04/17 02:08:37;;;;;;;1.40;1.30;;;;;;;18.84;41.03;101067.65;;;;-53
2021/04/17 02:11:37;;;;;;;1.53;1.43;;;;;;;18.83;40.99;101065.78;;;;-53
2021/04/17 02:14:37;;;;;;;1.40;1.30;;;;;;;18.82;40.98;101064.36;;;;-52
2021/04/17 02:17:37;;;;;;;1.47;1.30;;;;;;;18.80;41.01;101063.27;;;;-53
2021/04/17 02:20:37;;;;;;;1.32;1.22;;;;;;;18.79;41.02;101062.78;;;;-53
2021/04/17 02:23:37;;;;;;;1.56;1.46;;;;;;;18.80;41.00;101066.59;;;;-52
2021/04/17 02:26:37;;;;;;;1.69;1.33;;;;;;;18.77;41.04;101064.58;;;;-53
2021/04/17 02:29:37;;;;;;;1.50;1.40;;;;;;;18.76;41.03;101061.81;;;;-52
2021/04/17 02:32:37;;;;;;;1.45;1.35;;;;;;;18.75;41.01;101059.75;;;;-52
2021/04/17 02:35:37;;;;;;;1.50;1.40;;;;;;;18.75;41.02;101059.91;;;;-53
2021/04/17 02:38:37;;;;;;;1.41;1.31;;;;;;;18.72;41.05;101055.89;;;;-53
2021/04/17 02:41:37;;;;;;;1.49;1.38;;;;;;;18.72;41.06;101049.80;;;;-52
2021/04/17 02:44:37;;;;;;;1.85;1.40;;;;;;;18.72;41.03;101049.28;;;;-52
2021/04/17 02:47:37;;;;;;;1.50;1.40;;;;;;;18.71;41.06;101048.22;;;;-52
2021/04/17 02:50:37;;;;;;;1.46;1.36;;;;;;;18.69;41.03;101045.26;;;;-53
2021/04/17 02:53:37;;;;;;;1.52;1.42;;;;;;;18.70;41.05;101044.97;;;;-52
2021/04/17 02:56:37;;;;;;;1.32;1.22;;;;;;;18.69;41.01;101038.84;;;;-53
2021/04/17 02:59:37;;;;;;;1.49;1.39;;;;;;;18.67;41.07;101041.56;;;;-53
2021/04/17 03:02:37;;;;;;;1.59;1.49;;;;;;;18.66;41.07;101039.94;;;;-53
2021/04/17 03:05:37;;;;;;;1.44;1.34;;;;;;;18.66;41.05;101038.48;;;;-53
2021/04/17 03:08:37;;;;;;;1.40;1.30;;;;;;;18.65;41.07;101034.63;;;;-53
2021/04/17 03:11:37;;;;;;;1.37;1.27;;;;;;;18.64;41.06;101035.19;;;;-53
2021/04/17 03:14:40;;;;;;;1.40;1.30;;;;;;;18.63;41.07;101035.00;;;;-52
2021/04/17 03:17:37;;;;;;;1.43;1.33;;;;;;;18.61;41.03;101030.41;;;;-52
2021/04/17 03:20:37;;;;;;;1.81;1.40;;;;;;;18.62;41.07;101032.80;;;;-52
2021/04/17 03:23:37;;;;;;;1.50;1.40;;;;;;;18.61;41.04;101028.22;;;;-53
2021/04/17 03:26:37;;;;;;;1.53;1.43;;;;;;;18.60;41.06;101027.32;;;;-52
2021/04/17 03:29:37;;;;;;;1.53;1.43;;;;;;;18.59;41.08;101026.72;;;;-53
2021/04/17 03:32:37;;;;;;;1.50;1.40;;;;;;;18.59;41.08;101024.12;;;;-52
2021/04/17 03:35:37;;;;;;;1.67;1.57;;;;;;;18.58;41.04;101025.91;;;;-52
2021/04/17 03:38:37;;;;;;;1.40;1.30;;;;;;;18.57;41.06;101026.22;;;;-53
2021/04/17 03:41:37;;;;;;;1.63;1.31;;;;;;;18.57;41.09;101023.92;;;;-52
2021/04/17 03:44:37;;;;;;;1.50;1.40;;;;;;;18.56;41.08;101025.62;;;;-53
2021/04/17 03:47:37;;;;;;;1.45;1.35;;;;;;;18.54;41.09;101025.17;;;;-53
2021/04/17 03:50:38;;;;;;;1.40;1.30;;;;;;;18.54;41.10;101025.01;;;;-52
2021/04/17 03:53:37;;;;;;;1.50;1.40;;;;;;;18.53;41.08;101029.87;;;;-52
2021/04/17 03:56:37;;;;;;;1.50;1.40;;;;;;;18.53;41.10;101024.57;;;;-53
2021/04/17 03:59:38;;;;;;;1.49;1.39;;;;;;;18.51;41.09;101024.32;;;;-52
2021/04/17 04:02:37;;;;;;;1.45;1.35;;;;;;;18.51;41.12;101024.05;;;;-53
2021/04/17 04:05:37;;;;;;;1.45;1.35;;;;;;;18.50;41.11;101028.58;;;;-52
2021/04/17 04:08:37;;;;;;;1.41;1.31;;;;;;;18.50;41.10;101033.61;;;;-53
2021/04/17 04:11:37;;;;;;;1.58;1.48;;;;;;;18.49;41.13;101033.98;;;;-52
2021/04/17 04:14:37;;;;;;;1.52;1.42;;;;;;;18.48;41.08;101038.61;;;;-52
2021/04/17 04:17:37;;;;;;;1.40;1.30;;;;;;;18.47;41.13;101037.06;;;;-52
2021/04/17 04:20:37;;;;;;;1.40;1.30;;;;;;;18.47;41.07;101036.25;;;;-52
2021/04/17 04:23:37;;;;;;;1.51;1.41;;;;;;;18.46;41.08;101038.41;;;;-53
2021/04/17 04:26:37;;;;;;;1.67;1.57;;;;;;;18.45;41.12;101035.04;;;;-52
2021/04/17 04:29:37;;;;;;;1.40;1.30;;;;;;;18.44;41.12;101031.62;;;;-52
2021/04/17 04:32:37;;;;;;;1.41;1.31;;;;;;;18.43;41.09;101032.73;;;;-53
2021/04/17 04:35:37;;;;;;;1.50;1.40;;;;;;;18.43;41.12;101035.61;;;;-53
2021/04/17 04:38:37;;;;;;;1.49;1.39;;;;;;;18.42;41.12;101037.11;;;;-53
2021/04/17 04:41:37;;;;;;;1.41;1.31;;;;;;;18.41;41.13;101039.86;;;;-53
2021/04/17 04:44:37;;;;;;;1.33;1.23;;;;;;;18.40;41.11;101041.28;;;;-52
2021/04/17 04:47:37;;;;;;;1.51;1.41;;;;;;;18.40;41.10;101041.77;;;;-53
2021/04/17 04:50:37;;;;;;;1.58;1.48;;;;;;;18.40;41.13;101045.75;;;;-53
2021/04/17 04:53:37;;;;;;;1.39;1.29;;;;;;;18.39;41.09;101045.09;;;;-60
2021/04/17 04:56:37;;;;;;;1.40;1.30;;;;;;;18.39;41.15;101044.20;;;;-60
2021/04/17 04:59:37;;;;;;;1.51;1.41;;;;;;;18.38;41.13;101044.58;;;;-59
2021/04/17 05:02:37;;;;;;;1.70;1.50;;;;;;;18.36;41.12;101047.73;;;;-59
2021/04/17 05:05:37;;;;;;;1.61;1.51;;;;;;;18.37;41.10;101050.33;;;;-53
2021/04/17 05:08:37;;;;;;;1.50;1.40;;;;;;;18.36;41.11;101048.10;;;;-52
2021/04/17 05:11:37;;;;;;;1.41;1.31;;;;;;;18.35;41.13;101047.13;;;;-52
2021/04/17 05:14:37;;;;;;;1.50;1.40;;;;;;;18.35;41.19;101042.49;;;;-52
2021/04/17 05:17:37;;;;;;;1.41;1.31;;;;;;;18.35;41.16;101045.58;;;;-52
2021/04/17 05:20:37;;;;;;;1.46;1.36;;;;;;;18.35;41.13;101048.02;;;;-52
2021/04/17 05:23:37;;;;;;;1.40;1.30;;;;;;;18.36;41.22;101044.61;;;;-52
2021/04/17 05:26:37;;;;;;;1.45;1.34;;;;;;;18.38;41.19;101043.76;;;;-52
2021/04/17 05:29:37;;;;;;;1.40;1.30;;;;;;;18.39;41.16;101044.61;;;;-52
2021/04/17 05:32:38;;;;;;;1.51;1.41;;;;;;;18.41;41.14;101049.84;;;;-52
2021/04/17 05:35:37;;;;;;;1.37;1.27;;;;;;;18.42;41.17;101051.72;;;;-53
2021/04/17 05:38:37;;;;;;;1.40;1.30;;;;;;;18.44;41.20;101053.95;;;;-52
2021/04/17 05:41:37;;;;;;;1.78;1.45;;;;;;;18.47;41.24;101052.48;;;;-52
2021/04/17 05:44:37;;;;;;;1.47;1.37;;;;;;;18.50;41.17;101052.94;;;;-52
2021/04/17 05:47:37;;;;;;;1.50;1.40;;;;;;;18.54;41.15;101052.20;;;;-54
2021/04/17 05:50:37;;;;;;;4.73;1.59;;;;;;;18.59;41.42;101052.61;;;;-56
2021/04/17 05:53:37;;;;;;;2.27;1.79;;;;;;;18.62;41.11;101051.72;;;;-54
2021/04/17 05:56:37;;;;;;;2.30;1.86;;;;;;;18.65;41.01;101046.73;;;;-58
2021/04/17 05:59:37;;;;;;;1.99;1.79;;;;;;;18.70;41.08;101048.54;;;;-58
2021/04/17 06:02:38;;;;;;;2.30;1.73;;;;;;;18.74;41.33;101051.27;;;;-52
2021/04/17 06:05:37;;;;;;;2.81;2.01;;;;;;;18.76;41.07;101050.28;;;;-53
2021/04/17 06:08:37;;;;;;;2.36;1.77;;;;;;;18.79;41.20;101051.33;;;;-55
2021/04/17 06:11:37;;;;;;;2.58;1.69;;;;;;;18.82;41.10;101050.23;;;;-52
2021/04/17 06:14:37;;;;;;;4.38;1.93;;;;;;;18.87;41.05;101053.02;;;;-49
2021/04/17 06:17:37;;;;;;;5.13;1.79;;;;;;;18.90;41.06;101053.06;;;;-61
2021/04/17 06:20:37;;;;;;;3.75;1.84;;;;;;;18.92;41.33;101054.16;;;;-50
2021/04/17 06:23:37;;;;;;;1.83;1.67;;;;;;;18.94;41.41;101060.53;;;;-52
2021/04/17 06:26:38;;;;;;;5.67;1.70;;;;;;;18.96;41.43;101060.81;;;;-52
2021/04/17 06:29:37;;;;;;;1.70;1.59;;;;;;;18.98;41.37;101059.55;;;;-52
2021/04/17 06:32:37;;;;;;;3.45;1.80;;;;;;;18.99;41.28;101057.39;;;;-52
2021/04/17 06:35:38;;;;;;;3.19;1.69;;;;;;;19.00;41.19;101058.20;;;;-52
2021/04/17 06:38:37;;;;;;;4.54;1.62;;;;;;;19.00;41.22;101050.89;;;;-58
2021/04/17 06:41:37;;;;;;;1.92;1.61;;;;;;;19.01;41.21;101054.58;;;;-59
2021/04/17 06:44:37;;;;;;;2.17;1.61;;;;;;;19.01;41.15;101047.97;;;;-58
2021/04/17 06:47:37;;;;;;;2.30;1.60;;;;;;;19.00;41.12;101046.99;;;;-58
2021/04/17 06:50:37;;;;;;;2.25;1.60;;;;;;;19.01;41.12;101047.81;;;;-58
2021/04/17 06:53:37;;;;;;;2.19;1.60;;;;;;;19.01;41.11;101045.86;;;;-59
2021/04/17 06:56:37;;;;;;;1.91;1.61;;;;;;;19.01;41.08;101043.26;;;;-59
2021/04/17 06:59:37;;;;;;;1.73;1.49;;;;;;;19.01;41.07;101044.07;;;;-59
2021/04/17 07:02:37;;;;;;;1.72;1.55;;;;;;;19.01;41.08;101044.51;;;;-58
2021/04/17 07:05:37;;;;;;;2.41;1.61;;;;;;;19.01;41.04;101041.27;;;;-59
2021/04/17 07:08:37;;;;;;;2.11;1.63;;;;;;;19.01;41.03;101043.78;;;;-59
2021/04/17 07:11:37;;;;;;;2.06;1.79;;;;;;;19.01;41.04;101038.50;;;;-59
2021/04/17 07:14:37;;;;;;;1.79;1.41;;;;;;;19.00;41.01;101039.93;;;;-58
2021/04/17 07:17:37;;;;;;;2.33;1.54;;;;;;;19.00;41.01;101044.23;;;;-51
2021/04/17 07:20:37;;;;;;;1.70;1.60;;;;;;;19.01;41.00;101042.94;;;;-51
2021/04/17 07:23:37;;;;;;;3.75;1.60;;;;;;;19.00;40.96;101042.85;;;;-51
2021/04/17 07:26:37;;;;;;;2.52;1.53;;;;;;;19.00;40.97;101041.31;;;;-51
2021/04/17 07:29:37;;;;;;;2.81;1.55;;;;;;;19.00;40.97;101040.17;;;;-51
2021/04/17 07:32:37;;;;;;;2.37;1.67;;;;;;;19.00;40.96;101038.62;;;;-55
2021/04/17 07:35:37;;;;;;;1.96;1.50;;;;;;;18.99;40.97;101043.58;;;;-58
2021/04/17 07:38:38;;;;;;;2.05;1.60;;;;;;;18.98;40.95;101040.46;;;;-58
2021/04/17 07:41:37;;;;;;;1.72;1.50;;;;;;;18.98;40.96;101037.78;;;;-52
2021/04/17 07:44:37;;;;;;;1.70;1.50;;;;;;;18.97;40.90;101039.24;;;;-52
2021/04/17 07:47:37;;;;;;;2.07;1.55;;;;;;;18.97;40.94;101036.16;;;;-54
2021/04/17 07:50:37;;;;;;;1.67;1.57;;;;;;;18.97;40.90;101038.91;;;;-55
2021/04/17 07:53:37;;;;;;;1.96;1.55;;;;;;;18.96;40.90;101037.17;;;;-53
2021/04/17 07:56:37;;;;;;;1.60;1.50;;;;;;;18.96;40.89;101035.80;;;;-52
2021/04/17 07:59:37;;;;;;;1.65;1.55;;;;;;;18.94;40.95;101037.79;;;;-61
2021/04/17 08:02:38;;;;;;;1.77;1.59;;;;;;;18.93;41.41;101038.59;;;;-60
2021/04/17 08:05:37;;;;;;;2.45;1.46;;;;;;;18.95;41.54;101037.66;;;;-61
2021/04/17 08:08:37;;;;;;;1.70;1.53;;;;;;;18.96;41.68;101037.66;;;;-52
2021/04/17 08:11:37;;;;;;;1.76;1.57;;;;;;;19.01;41.81;101039.15;;;;-54
2021/04/17 08:14:37;;;;;;;2.07;1.49;;;;;;;19.05;41.78;101036.34;;;;-51
2021/04/17 08:17:37;;;;;;;3.35;1.59;;;;;;;19.08;41.78;101032.77;;;;-54
2021/04/17 08:20:37;;;;;;;2.05;1.61;;;;;;;19.13;41.66;101038.27;;;;-53
2021/04/17 08:23:37;;;;;;;2.08;1.60;;;;;;;19.14;41.49;101036.69;;;;-52
2021/04/17 08:26:37;;;;;;;2.52;1.63;;;;;;;19.21;41.78;101033.30;;;;-51
2021/04/17 08:29:37;;;;;;;3.52;1.61;;;;;;;19.25;41.97;101031.98;;;;-50
2021/04/17 08:32:37;;;;;;;4.35;1.77;;;;;;;19.29;41.70;101032.12;;;;-55
2021/04/17 08:35:37;;;;;;;3.86;1.65;;;;;;;19.33;41.94;101025.94;;;;-55
2021/04/17 08:38:37;;;;;;;3.48;1.76;;;;;;;19.37;42.03;101029.17;;;;-56
2021/04/17 08:41:37;;;;;;;2.55;1.71;;;;;;;19.41;41.82;101024.69;;;;-58
2021/04/17 08:44:37;;;;;;;3.08;1.87;;;;;;;19.43;41.23;101022.84;;;;-61
2021/04/17 08:47:37;;;;;;;2.26;1.67;;;;;;;19.44;41.22;101026.10;;;;-62
2021/04/17 08:50:37;;;;;;;4.69;1.81;;;;;;;19.46;40.81;101015.24;;;;-52
2021/04/17 08:53:37;;;;;;;3.25;1.79;;;;;;;19.52;41.48;101014.77;;;;-52
2021/04/17 08:56:37;;;;;;;3.49;1.79;;;;;;;19.57;41.68;101013.16;;;;-61
2021/04/17 08:59:37;;;;;;;2.17;1.70;;;;;;;19.61;41.67;101007.73;;;;-59
2021/04/17 09:02:37;;;;;;;2.31;1.71;;;;;;;19.68;41.79;101004.28;;;;-59
2021/04/17 09:05:37;;;;;;;2.25;1.70;;;;;;;19.73;41.85;101001.19;;;;-59
2021/04/17 09:08:38;;;;;;;2.39;1.60;;;;;;;19.77;41.62;100997.02;;;;-54
2021/04/17 09:11:37;;;;;;;1.67;1.57;;;;;;;19.80;41.72;101000.33;;;;-50
2021/04/17 09:14:37;;;;;;;2.00;1.59;;;;;;;19.85;42.03;100992.58;;;;-56
2021/04/17 09:17:37;;;;;;;1.99;1.62;;;;;;;19.86;41.72;100993.34;;;;-56
2021/04/17 09:20:39;;;;;;;2.09;1.59;;;;;;;19.93;41.91;100990.33;;;;-53
2021/04/17 09:23:39;;;;;;;2.25;1.55;;;;;;;19.96;42.03;100990.95;;;;-58
2021/04/17 09:26:39;;;;;;;3.56;1.55;;;;;;;19.99;41.84;100981.54;;;;-60
2021/04/17 09:29:37;;;;;;;2.27;1.50;;;;;;;20.04;41.90;100976.47;;;;-64
2021/04/17 09:32:37;;;;;;;2.09;1.50;;;;;;;20.07;41.88;100979.37;;;;-58
2021/04/17 09:35:37;;;;;;;1.60;1.50;;;;;;;20.06;41.81;100972.91;;;;-60
2021/04/17 09:38:37;;;;;;;1.84;1.63;;;;;;;20.09;41.67;100971.91;;;;-57
2021/04/17 09:41:37;;;;;;;5.17;1.70;;;;;;;20.05;41.50;100970.39;;;;-50
2021/04/17 09:44:37;;;;;;;4.88;1.89;;;;;;;20.00;40.08;100968.44;;;;-49
2021/04/17 09:47:37;;;;;;;3.22;1.76;;;;;;;20.01;40.91;100963.42;;;;-53
2021/04/17 09:50:37;;;;;;;2.80;1.88;;;;;;;20.05;41.00;100963.47;;;;-52
2021/04/17 09:53:37;;;;;;;1.66;1.50;;;;;;;20.09;41.37;100956.93;;;;-57
2021/04/17 09:56:38;;;;;;;2.49;1.61;;;;;;;20.13;41.41;100956.95;;;;-55
2021/04/17 09:59:37;;;;;;;4.37;1.60;;;;;;;20.14;41.40;100951.53;;;;-56
2021/04/17 10:02:37;;;;;;;2.29;1.66;;;;;;;20.14;40.99;100950.30;;;;-55
2021/04/17 10:05:37;;;;;;;3.11;1.73;;;;;;;20.14;40.85;100944.45;;;;-56
2021/04/17 10:08:37;;;;;;;4.03;1.51;;;;;;;20.15;40.87;100942.08;;;;-55
2021/04/17 10:11:38;;;;;;;1.88;1.60;;;;;;;20.14;40.80;100944.12;;;;-55
2021/04/17 10:14:37;;;;;;;3.78;1.53;;;;;;;20.15;40.79;100937.15;;;;-55
2021/04/17 10:17:37;;;;;;;1.97;1.57;;;;;;;20.16;40.79;100930.31;;;;-55
2021/04/17 10:20:37;;;;;;;2.04;1.51;;;;;;;20.17;40.70;100926.89;;;;-56
2021/04/17 10:23:37;;;;;;;2.84;1.54;;;;;;;20.17;40.66;100924.56;;;;-56
2021/04/17 10:26:37;;;;;;;2.25;1.57;;;;;;;20.19;40.68;100923.77;;;;-58
2021/04/17 10:29:37;;;;;;;2.27;1.47;;;;;;;20.21;40.63;100922.66;;;;-58
2021/04/17 10:32:37;;;;;;;1.95;1.47;;;;;;;20.23;40.63;100918.73;;;;-59
2021/04/17 10:35:37;;;;;;;1.53;1.43;;;;;;;20.24;40.54;100906.31;;;;-58
2021/04/17 10:38:39;;;;;;;1.77;1.42;;;;;;;20.26;40.57;100908.86;;;;-58
2021/04/17 10:41:37;;;;;;;2.61;1.45;;;;;;;20.27;40.54;100904.95;;;;-58
2021/04/17 10:44:37;;;;;;;1.61;1.51;;;;;;;20.28;40.48;100904.80;;;;-59
2021/04/17 10:47:37;;;;;;;2.73;1.68;;;;;;;20.29;40.51;100900.33;;;;-59
2021/04/17 10:50:37;;;;;;;1.53;1.43;;;;;;;20.32;40.51;100896.55;;;;-52
2021/04/17 10:53:37;;;;;;;1.41;1.31;;;;;;;20.33;40.46;100894.83;;;;-52
2021/04/17 10:56:37;;;;;;;1.51;1.41;;;;;;;20.33;40.47;100891.66;;;;-52
2021/04/17 10:59:37;;;;;;;1.64;1.47;;;;;;;20.35;40.38;100882.89;;;;-52
2021/04/17 11:02:37;;;;;;;1.51;1.40;;;;;;;20.34;40.42;100878.98;;;;-52
2021/04/17 11:05:37;;;;;;;1.50;1.40;;;;;;;20.35;40.38;100880.28;;;;-53
2021/04/17 11:08:37;;;;;;;2.80;1.32;;;;;;;20.36;40.49;100877.30;;;;-56
2021/04/17 11:11:37;;;;;;;1.85;1.46;;;;;;;20.39;40.85;100871.45;;;;-55
2021/04/17 11:14:37;;;;;;;1.50;1.40;;;;;;;20.41;41.08;100867.31;;;;-58
2021/04/17 11:17:37;;;;;;;3.09;1.46;;;;;;;20.42;40.61;100865.84;;;;-61
2021/04/17 11:20:37;;;;;;;1.66;1.37;;;;;;;20.41;40.56;100861.05;;;;-58
2021/04/17 11:23:37;;;;;;;2.39;1.53;;;;;;;20.41;40.46;100843.63;;;;-58
2021/04/17 11:26:40;;;;;;;1.39;1.29;;;;;;;20.40;40.47;100846.16;;;;-57
2021/04/17 11:29:37;;;;;;;2.60;1.41;;;;;;;20.40;40.44;100849.58;;;;-57
2021/04/17 11:32:37;;;;;;;1.50;1.40;;;;;;;20.40;40.47;100846.23;;;;-57
2021/04/17 11:35:37;;;;;;;2.10;1.23;;;;;;;20.39;40.42;100844.02;;;;-58
2021/04/17 11:38:37;;;;;;;1.55;1.43;;;;;;;20.39;40.44;100839.38;;;;-62
2021/04/17 11:41:37;;;;;;;1.51;1.26;;;;;;;20.38;40.46;100841.50;;;;-62
2021/04/17 11:44:37;;;;;;;1.52;1.42;;;;;;;20.39;40.41;100832.45;;;;-62
2021/04/17 11:47:38;;;;;;;1.36;1.26;;;;;;;20.39;40.41;100828.39;;;;-62
2021/04/17 11:50:37;;;;;;;1.51;1.33;;;;;;;20.39;40.40;100821.95;;;;-58
2021/04/17 11:53:37;;;;;;;1.41;1.31;;;;;;;20.39;40.38;100827.48;;;;-57
2021/04/17 11:56:37;;;;;;;1.39;1.29;;;;;;;20.39;40.38;100830.25;;;;-60
2021/04/17 11:59:40;;;;;;;1.41;1.31;;;;;;;20.39;40.40;100818.12;;;;-61
2021/04/17 12:02:37;;;;;;;1.47;1.33;;;;;;;20.41;40.26;100816.28;;;;-62
2021/04/17 12:05:37;;;;;;;1.47;1.33;;;;;;;20.40;40.30;100818.97;;;;-62
2021/04/17 12:08:37;;;;;;;1.49;1.39;;;;;;;20.39;40.26;100819.43;;;;-62
2021/04/17 12:11:37;;;;;;;1.49;1.39;;;;;;;20.39;40.32;100816.34;;;;-62
2021/04/17 12:14:37;;;;;;;1.45;1.35;;;;;;;20.39;40.26;100811.86;;;;-57
2021/04/17 12:17:37;;;;;;;1.30;1.20;;;;;;;20.39;40.24;100815.61;;;;-62
2021/04/17 12:20:37;;;;;;;1.42;1.30;;;;;;;20.40;40.25;100813.41;;;;-62
2021/04/17 12:23:37;;;;;;;1.39;1.29;;;;;;;20.39;40.29;100809.58;;;;-63
2021/04/17 12:26:37;;;;;;;1.39;1.29;;;;;;;20.40;40.23;100808.84;;;;-62
2021/04/17 12:29:37;;;;;;;1.79;1.40;;;;;;;20.40;40.22;100806.24;;;;-58
2021/04/17 12:32:37;;;;;;;1.73;1.44;;;;;;;20.39;40.21;100801.60;;;;-58
2021/04/17 12:35:37;;;;;;;1.40;1.30;;;;;;;20.40;40.18;100797.07;;;;-58
2021/04/17 12:38:37;;;;;;;1.39;1.29;;;;;;;20.39;40.25;100799.41;;;;-58
2021/04/17 12:41:37;;;;;;;1.64;1.29;;;;;;;20.38;40.19;100793.72;;;;-57
2021/04/17 12:44:37;;;;;;;1.58;1.33;;;;;;;20.37;40.54;100801.02;;;;-50
2021/04/17 12:47:37;;;;;;;6.05;1.81;;;;;;;20.38;40.89;100796.08;;;;-51
2021/04/17 12:50:37;;;;;;;2.03;1.59;;;;;;;20.40;40.66;100794.22;;;;-43
2021/04/17 12:53:37;;;;;;;8.65;1.60;;;;;;;20.41;41.52;100788.19;;;;-48
2021/04/17 12:56:37;;;;;;;2.00;1.48;;;;;;;20.43;41.31;100788.04;;;;-44
2021/04/17 12:59:37;;;;;;;2.81;1.58;;;;;;;20.44;40.84;100783.75;;;;-51
2021/04/17 13:02:37;;;;;;;2.33;1.52;;;;;;;20.46;41.76;100774.97;;;;-52
2021/04/17 13:05:37;;;;;;;7.83;1.93;;;;;;;20.47;41.64;100775.78;;;;-49
2021/04/17 13:08:37;;;;;;;4.51;1.63;;;;;;;20.49;41.45;100769.12;;;;-53
2021/04/17 13:11:37;;;;;;;3.63;1.75;;;;;;;20.49;41.22;100765.05;;;;-45
2021/04/17 13:14:37;;;;;;;2.33;1.57;;;;;;;20.50;41.52;100773.19;;;;-47
2021/04/17 13:17:37;;;;;;;8.89;1.67;;;;;;;20.53;41.06;100765.81;;;;-56
2021/04/17 13:20:37;;;;;;;4.44;1.81;;;;;;;20.51;40.72;100762.30;;;;-57
2021/04/17 13:23:38;;;;;;;4.30;1.62;;;;;;;20.49;40.35;100759.03;;;;-51
2021/04/17 13:26:37;;;;;;;3.61;1.81;;;;;;;20.46;40.08;100751.94;;;;-54
2021/04/17 13:29:37;;;;;;;2.98;1.71;;;;;;;20.46;40.06;100760.05;;;;-55
2021/04/17 13:32:37;;;;;;;4.34;1.67;;;;;;;20.44;39.78;100752.33;;;;-57
2021/04/17 13:35:37;;;;;;;1.84;1.53;;;;;;;20.43;39.90;100746.44;;;;-54
2021/04/17 13:38:37;;;;;;;2.60;1.70;;;;;;;20.43;39.70;100746.44;;;;-45
2021/04/17 13:41:37;;;;;;;2.77;1.75;;;;;;;20.41;39.58;100750.83;;;;-54
2021/04/17 13:44:37;;;;;;;4.11;1.87;;;;;;;20.45;39.86;100748.82;;;;-59
2021/04/17 13:47:37;;;;;;;3.15;1.48;;;;;;;20.47;40.02;100743.13;;;;-56
2021/04/17 13:50:37;;;;;;;1.95;1.46;;;;;;;20.52;40.22;100743.23;;;;-55
2021/04/17 13:53:37;;;;;;;3.08;1.60;;;;;;;20.54;40.20;100740.16;;;;-54
2021/04/17 13:56:37;;;;;;;4.55;1.67;;;;;;;20.55;40.10;100736.84;;;;-54
2021/04/17 13:59:37;;;;;;;2.75;1.55;;;;;;;20.54;39.91;100734.48;;;;-56
2021/04/17 14:02:37;;;;;;;1.91;1.45;;;;;;;20.55;39.87;100733.27;;;;-56
2021/04/17 14:05:38;;;;;;;3.17;1.54;;;;;;;20.54;39.85;100728.44;;;;-48
2021/04/17 14:08:37;;;;;;;1.79;1.39;;;;;;;20.53;39.78;100730.88;;;;-48
2021/04/17 14:11:37;;;;;;;2.39;1.50;;;;;;;20.54;39.79;100725.42;;;;-48
2021/04/17 14:14:37;;;;;;;1.85;1.48;;;;;;;20.53;39.77;100724.21;;;;-52
2021/04/17 14:17:38;;;;;;;2.19;1.40;;;;;;;20.52;39.79;100719.55;;;;-51
2021/04/17 14:20:37;;;;;;;2.02;1.50;;;;;;;20.52;39.77;100718.48;;;;-55
2021/04/17 14:23:37;;;;;;;2.96;1.51;;;;;;;20.52;39.74;100719.70;;;;-50
2021/04/17 14:26:37;;;;;;;1.94;1.39;;;;;;;20.54;39.75;100727.63;;;;-50
2021/04/17 14:29:37;;;;;;;3.01;1.44;;;;;;;20.49;39.17;100715.88;;;;-50
2021/04/17 14:32:37;;;;;;;4.52;1.43;;;;;;;20.47;38.29;100720.83;;;;-56
2021/04/17 14:35:37;;;;;;;3.34;1.71;;;;;;;20.49;38.79;100719.63;;;;-54
2021/04/17 14:38:37;;;;;;;1.62;1.52;;;;;;;20.49;39.07;100718.23;;;;-55
2021/04/17 14:41:37;;;;;;;2.09;1.30;;;;;;;20.50;39.28;100717.34;;;;-55
2021/04/17 14:44:37;;;;;;;2.71;1.47;;;;;;;20.55;39.26;100714.86;;;;-53
2021/04/17 14:47:37;;;;;;;2.50;1.37;;;;;;;20.58;39.30;100714.23;;;;-53
2021/04/17 14:50:37;;;;;;;3.18;1.60;;;;;;;20.60;39.32;100707.74;;;;-54
2021/04/17 14:53:37;;;;;;;3.98;1.46;;;;;;;20.61;39.58;100714.11;;;;-48
2021/04/17 14:56:37;;;;;;;1.69;1.40;;;;;;;20.65;39.71;100714.45;;;;-59
2021/04/17 14:59:37;;;;;;;2.21;1.39;;;;;;;20.68;39.91;100714.13;;;;-57
2021/04/17 15:02:37;;;;;;;1.46;1.28;;;;;;;20.70;40.06;100714.72;;;;-54
2021/04/17 15:05:37;;;;;;;2.78;1.42;;;;;;;20.70;39.85;100709.59;;;;-58
2021/04/17 15:08:37;;;;;;;2.67;1.40;;;;;;;20.64;38.64;100706.38;;;;-61
2021/04/17 15:11:37;;;;;;;3.41;1.59;;;;;;;20.67;39.63;100713.17;;;;-53
2021/04/17 15:14:37;;;;;;;2.51;1.41;;;;;;;20.68;39.85;100712.02;;;;-58
2021/04/17 15:17:37;;;;;;;2.12;1.37;;;;;;;20.71;40.01;100712.11;;;;-49
2021/04/17 15:20:37;;;;;;;2.24;1.43;;;;;;;20.71;40.13;100713.44;;;;-50
2021/04/17 15:23:37;;;;;;;1.55;1.40;;;;;;;20.74;40.26;100716.95;;;;-53
2021/04/17 15:26:37;;;;;;;3.57;1.50;;;;;;;20.77;40.39;100718.82;;;;-57
2021/04/17 15:29:37;;;;;;;1.99;1.32;;;;;;;20.77;40.47;100720.14;;;;-57
2021/04/17 15:32:37;;;;;;;2.91;1.46;;;;;;;20.77;40.37;100724.80;;;;-52
2021/04/17 15:35:37;;;;;;;2.41;1.38;;;;;;;20.75;40.15;100724.78;;;;-52
2021/04/17 15:38:38;;;;;;;1.81;1.31;;;;;;;20.77;40.25;100732.78;;;;-50
2021/04/17 15:41:37;;;;;;;1.77;1.49;;;;;;;20.78;40.38;100733.01;;;;-51
2021/04/17 15:44:37;;;;;;;2.14;1.34;;;;;;;20.80;40.56;100734.73;;;;-51
2021/04/17 15:47:37;;;;;;;1.53;1.30;;;;;;;20.83;40.58;100734.33;;;;-45
2021/04/17 15:50:37;;;;;;;1.63;1.35;;;;;;;20.83;40.49;100734.09;;;;-52
2021/04/17 15:53:37;;;;;;;1.49;1.25;;;;;;;20.86;40.70;100736.64;;;;-57
2021/04/17 15:56:37;;;;;;;1.35;1.25;;;;;;;20.86;40.73;100739.33;;;;-57
2021/04/17 16:16:40;;;;;;;1.41;1.29;;;;;;;20.90;40.46;100750.03;;;;-53
2021/04/17 16:19:37;;;;;;;3.79;1.36;;;;;;;20.91;40.34;100752.78;;;;-53
2021/04/17 16:22:37;;;;;;;3.71;1.41;;;;;;;20.93;40.38;100749.37;;;;-52
2021/04/17 16:25:37;;;;;;;1.98;1.39;;;;;;;20.98;40.56;100748.68;;;;-55
2021/04/17 16:28:39;;;;;;;1.70;1.30;;;;;;;21.00;40.70;100751.13;;;;-53
2021/04/17 16:31:37;;;;;;;1.77;1.40;;;;;;;20.96;40.26;100748.83;;;;-51
2021/04/17 16:34:37;;;;;;;1.91;1.49;;;;;;;20.91;39.54;100757.02;;;;-53
2021/04/17 16:37:37;;;;;;;3.20;1.50;;;;;;;20.96;39.83;100755.98;;;;-58
2021/04/17 16:40:37;;;;;;;1.68;1.44;;;;;;;20.97;39.92;100759.49;;;;-51
2021/04/17 16:43:37;;;;;;;1.75;1.40;;;;;;;20.98;40.00;100760.09;;;;-51
2021/04/17 16:46:37;;;;;;;1.89;1.50;;;;;;;20.99;40.12;100758.36;;;;-57
2021/04/17 16:49:37;;;;;;;2.63;1.42;;;;;;;21.01;40.13;100761.97;;;;-51
2021/04/17 16:52:37;;;;;;;1.53;1.29;;;;;;;21.03;40.23;100762.38;;;;-52
2021/04/17 16:55:37;;;;;;;1.39;1.29;;;;;;;21.04;40.30;100765.98;;;;-54
2021/04/17 16:58:37;;;;;;;1.43;1.30;;;;;;;21.03;40.27;100763.85;;;;-52
2021/04/17 17:01:37;;;;;;;1.97;1.41;;;;;;;21.05;40.41;100769.32;;;;-51